Time;durP1;ratioP1;P1;durP2;ratioP2;P2;SDS_P1;SDS_P2;PMS_P1;PMS_P2;Temp;Humidity;BMP_temperature;BMP_pressure;BME280_temperature;BME280_humidity;BME280_pressure;Samples;Min_cycle;Max_cycle;Signal;HPM_P1;HPM_P2
2022/01/01 00:01:41;;;;;;;10.43;6.18;;;5.80;98.00;;;;;;5034654;28;20025;-69
2022/01/01 00:04:07;;;;;;;9.85;4.82;;;5.80;98.00;;;;;;5030228;28;20025;-69
2022/01/01 00:06:32;;;;;;;8.20;4.20;;;5.80;98.00;;;;;;5035750;28;20423;-69
2022/01/01 00:09:01;;;;;;;6.68;3.65;;;5.70;98.00;;;;;;5032894;28;20048;-69
2022/01/01 00:11:29;;;;;;;6.93;4.25;;;5.80;98.00;;;;;;5032538;28;20397;-69
2022/01/01 00:13:55;;;;;;;9.00;5.07;;;5.60;98.00;;;;;;5034772;28;20029;-69
2022/01/01 00:16:21;;;;;;;13.93;7.18;;;5.60;97.50;;;;;;5032733;28;20052;-68
2022/01/01 00:18:46;;;;;;;8.57;4.82;;;5.70;98.00;;;;;;5029749;28;20045;-70
2022/01/01 00:21:12;;;;;;;8.43;3.92;;;5.70;98.00;;;;;;5033946;28;20337;-69
2022/01/01 00:23:38;;;;;;;7.25;4.03;;;5.80;97.80;;;;;;5029952;28;20036;-70
2022/01/01 00:26:03;;;;;;;8.50;4.38;;;5.80;98.00;;;;;;5034088;28;20369;-69
2022/01/01 00:28:29;;;;;;;6.20;3.63;;;5.80;98.00;;;;;;5032337;28;20037;-69
2022/01/01 00:30:55;;;;;;;9.25;3.90;;;5.70;98.00;;;;;;5012922;28;20036;-69
2022/01/01 00:33:20;;;;;;;7.53;4.20;;;5.70;97.80;;;;;;5028917;28;20116;-69
2022/01/01 00:35:46;;;;;;;6.97;3.60;;;5.60;98.00;;;;;;5036773;28;20067;-69
2022/01/01 00:38:12;;;;;;;9.18;3.70;;;5.60;97.60;;;;;;5027807;28;20109;-69
2022/01/01 00:40:37;;;;;;;8.25;3.47;;;5.60;97.90;;;;;;5035587;28;20022;-69
2022/01/01 00:43:04;;;;;;;10.88;6.03;;;5.60;97.00;;;;;;5035661;28;20071;-69
2022/01/01 00:45:29;;;;;;;21.45;11.45;;;5.70;97.30;;;;;;5034293;28;20036;-69
2022/01/01 00:47:58;;;;;;;8.45;5.18;;;5.70;97.40;;;;;;5021223;28;20025;-69
2022/01/01 00:50:23;;;;;;;10.68;5.60;;;5.70;97.30;;;;;;5025148;28;20022;-69
2022/01/01 00:52:51;;;;;;;6.75;3.75;;;5.70;97.20;;;;;;5034646;28;20030;-69
2022/01/01 00:55:16;;;;;;;6.22;3.47;;;5.70;97.60;;;;;;5035054;28;20044;-69
2022/01/01 00:57:42;;;;;;;7.57;3.80;;;5.60;97.20;;;;;;5025609;28;20033;-69
2022/01/01 01:00:17;;;;;;;7.05;3.85;;;5.50;97.50;;;;;;5038433;28;20029;-69
2022/01/01 01:02:43;;;;;;;6.30;3.63;;;5.40;97.50;;;;;;5029002;28;20079;-68
2022/01/01 01:05:11;;;;;;;7.45;3.70;;;5.30;97.10;;;;;;5029102;28;20025;-69
2022/01/01 01:07:37;;;;;;;10.23;3.95;;;5.30;96.50;;;;;;5039930;28;20083;-69
2022/01/01 01:10:13;;;;;;;9.15;4.47;;;5.40;96.40;;;;;;5040116;28;20021;-69
2022/01/01 01:12:44;;;;;;;8.50;4.00;;;5.40;96.30;;;;;;5031164;28;20056;-69
2022/01/01 01:15:17;;;;;;;7.32;4.38;;;5.50;96.40;;;;;;5014062;28;20741;-69
2022/01/01 01:17:46;;;;;;;8.07;5.07;;;5.60;96.70;;;;;;5032782;28;20045;-68
2022/01/01 01:20:12;;;;;;;8.40;4.82;;;5.60;97.00;;;;;;5033527;28;20057;-68
2022/01/01 01:22:38;;;;;;;8.32;3.70;;;5.60;97.60;;;;;;5031537;28;20025;-67
2022/01/01 01:25:05;;;;;;;7.60;4.57;;;5.50;97.30;;;;;;5028748;28;20018;-67
2022/01/01 01:27:31;;;;;;;6.20;3.55;;;5.50;97.10;;;;;;5028795;28;20395;-67
2022/01/01 01:29:59;;;;;;;8.80;4.15;;;5.50;97.20;;;;;;5026949;28;20108;-67
2022/01/01 01:32:25;;;;;;;8.10;4.10;;;5.50;97.20;;;;;;5026939;28;20075;-67
2022/01/01 01:34:51;;;;;;;6.70;3.85;;;5.40;97.20;;;;;;5027271;28;20423;-67
2022/01/01 01:37:17;;;;;;;7.25;4.75;;;5.40;97.10;;;;;;5028402;28;20323;-67
2022/01/01 01:39:43;;;;;;;10.10;3.50;;;5.40;97.10;;;;;;5027102;28;20028;-67
2022/01/01 01:42:09;;;;;;;7.38;3.80;;;5.40;96.80;;;;;;5030406;28;20068;-67
2022/01/01 01:44:42;;;;;;;6.60;3.60;;;5.30;97.10;;;;;;5031747;28;20026;-68
2022/01/01 01:47:15;;;;;;;5.55;3.30;;;5.20;97.40;;;;;;5025052;28;20112;-69
2022/01/01 01:49:42;;;;;;;5.15;3.00;;;5.20;96.90;;;;;;5025271;28;20442;-68
2022/01/01 01:52:09;;;;;;;6.78;3.45;;;5.20;96.50;;;;;;5031609;28;20033;-69
2022/01/01 01:54:35;;;;;;;5.65;2.88;;;5.30;96.50;;;;;;5027038;28;20037;-69
2022/01/01 01:57:23;;;;;;;6.55;2.72;;;5.30;96.60;;;;;;5028326;28;20026;-68
2022/01/01 02:00:10;;;;;;;4.60;2.70;;;5.30;97.00;;;;;;5036088;28;20029;-68
2022/01/01 02:02:37;;;;;;;8.02;2.90;;;5.20;96.90;;;;;;5040955;28;20507;-68
2022/01/01 02:05:02;;;;;;;5.10;2.75;;;5.30;97.10;;;;;;5037894;28;20033;-68
2022/01/01 02:07:32;;;;;;;5.80;3.35;;;5.20;97.00;;;;;;5039244;28;20018;-67
2022/01/01 02:09:58;;;;;;;6.28;3.05;;;5.10;97.00;;;;;;5016236;28;20025;-68
2022/01/01 02:12:30;;;;;;;6.30;3.30;;;5.10;96.90;;;;;;5027736;28;20030;-68
2022/01/01 02:17:28;;;;;;;5.45;2.90;;;5.10;96.00;;;;;;5033537;28;20047;-68
2022/01/01 02:19:59;;;;;;;6.07;2.80;;;5.20;96.70;;;;;;5005309;28;20465;-69
2022/01/01 02:22:45;;;;;;;4.70;2.67;;;5.10;97.20;;;;;;5033844;28;20070;-68
2022/01/01 02:25:12;;;;;;;5.35;2.92;;;5.10;96.50;;;;;;5033622;28;20064;-70
2022/01/01 02:27:39;;;;;;;8.10;2.90;;;5.20;96.80;;;;;;5028968;28;20084;-68
2022/01/01 02:30:07;;;;;;;6.22;2.95;;;5.10;96.90;;;;;;5030227;28;20036;-68
2022/01/01 02:32:36;;;;;;;6.65;3.10;;;5.10;96.80;;;;;;5030976;28;20026;-67
2022/01/01 02:35:19;;;;;;;7.78;3.33;;;5.00;97.10;;;;;;5034638;28;20040;-70
2022/01/01 02:37:45;;;;;;;5.93;3.30;;;5.00;96.80;;;;;;5028219;28;20029;-69
2022/01/01 02:40:12;;;;;;;6.50;3.40;;;5.00;96.90;;;;;;5018788;28;20411;-68
2022/01/01 02:42:42;;;;;;;6.78;3.58;;;4.90;96.60;;;;;;5035988;28;20021;-69
2022/01/01 02:45:09;;;;;;;5.18;2.80;;;4.80;97.00;;;;;;5037917;28;20045;-69
2022/01/01 02:47:35;;;;;;;5.20;2.97;;;4.70;96.60;;;;;;5036995;28;20425;-69
2022/01/01 02:50:01;;;;;;;5.40;3.08;;;4.60;96.10;;;;;;5037734;28;20026;-69
2022/01/01 02:52:27;;;;;;;6.80;3.85;;;4.50;97.00;;;;;;5037185;28;20053;-68
2022/01/01 02:54:52;;;;;;;5.43;3.13;;;4.50;96.50;;;;;;5037948;28;20056;-68
2022/01/01 02:57:21;;;;;;;8.25;3.13;;;4.40;96.20;;;;;;5038537;28;20045;-68
2022/01/01 02:59:48;;;;;;;7.93;4.57;;;4.40;96.30;;;;;;5037824;28;20059;-69
2022/01/01 03:02:14;;;;;;;7.72;3.55;;;4.30;95.90;;;;;;5036030;28;20032;-69
2022/01/01 03:04:39;;;;;;;5.80;3.20;;;4.40;94.70;;;;;;5037751;28;20013;-67
2022/01/01 03:07:06;;;;;;;7.13;3.42;;;4.50;95.00;;;;;;5037240;28;20088;-68
2022/01/01 03:09:35;;;;;;;8.07;3.60;;;4.70;94.40;;;;;;5038291;28;20014;-68
2022/01/01 03:12:09;;;;;;;6.18;3.63;;;4.70;95.50;;;;;;5042164;28;20049;-69
2022/01/01 03:14:36;;;;;;;7.38;3.40;;;4.70;95.30;;;;;;5037456;28;20049;-69
2022/01/01 03:17:04;;;;;;;5.45;3.15;;;4.60;96.00;;;;;;5036810;28;20033;-69
2022/01/01 03:19:30;;;;;;;6.78;3.65;;;4.60;95.60;;;;;;5036646;28;20050;-69
2022/01/01 03:21:56;;;;;;;6.70;3.35;;;4.50;97.20;;;;;;5036461;28;20030;-69
2022/01/01 03:24:22;;;;;;;6.00;3.25;;;4.30;96.30;;;;;;5020611;28;20079;-69
2022/01/01 03:26:48;;;;;;;7.38;4.10;;;4.40;96.20;;;;;;5037124;28;20322;-69
2022/01/01 03:29:13;;;;;;;8.02;4.30;;;4.50;95.10;;;;;;5037331;28;20026;-68
2022/01/01 03:31:42;;;;;;;7.53;4.70;;;4.60;95.00;;;;;;5036035;28;20033;-69
2022/01/01 03:34:07;;;;;;;8.43;4.10;;;4.50;96.60;;;;;;5037790;28;20100;-70
2022/01/01 03:36:33;;;;;;;9.52;4.47;;;4.60;94.50;;;;;;5031820;28;20116;-68
2022/01/01 03:38:59;;;;;;;7.53;4.20;;;4.80;95.30;;;;;;5037026;28;20029;-69
2022/01/01 03:41:26;;;;;;;10.07;4.55;;;4.90;95.40;;;;;;5036595;28;20340;-69
2022/01/01 03:43:51;;;;;;;10.70;5.63;;;4.90;95.60;;;;;;5036324;28;20342;-68
2022/01/01 03:46:17;;;;;;;7.85;3.53;;;4.80;97.20;;;;;;5036585;28;20071;-69
2022/01/01 03:48:43;;;;;;;7.57;3.53;;;4.60;96.50;;;;;;5035929;28;20032;-69
2022/01/01 03:51:11;;;;;;;6.03;3.00;;;4.70;96.40;;;;;;5035452;28;20065;-70
2022/01/01 03:53:37;;;;;;;5.65;2.60;;;4.70;96.00;;;;;;5034459;28;20068;-68
2022/01/01 03:56:02;;;;;;;5.28;3.08;;;4.90;96.00;;;;;;5018547;28;20053;-69
2022/01/01 03:58:28;;;;;;;4.93;2.40;;;5.10;95.90;;;;;;5036018;28;20406;-69
2022/01/01 04:00:55;;;;;;;6.28;2.55;;;5.10;97.00;;;;;;5035826;28;20053;-69
2022/01/01 04:03:21;;;;;;;3.78;2.08;;;4.90;97.50;;;;;;5035833;28;20036;-69
2022/01/01 04:05:47;;;;;;;4.82;2.55;;;4.70;97.30;;;;;;5036560;28;20021;-68
2022/01/01 04:08:13;;;;;;;5.20;2.50;;;4.60;97.60;;;;;;5028346;28;20033;-69
2022/01/01 04:10:39;;;;;;;6.00;2.72;;;4.40;97.40;;;;;;5035641;28;20022;-69
2022/01/01 04:13:07;;;;;;;5.43;2.22;;;4.30;97.10;;;;;;5036346;28;20017;-68
2022/01/01 04:15:35;;;;;;;4.68;2.10;;;4.40;96.40;;;;;;5036916;28;20505;-68
2022/01/01 04:18:04;;;;;;;5.82;2.50;;;4.30;97.00;;;;;;5025237;28;20374;-69
2022/01/01 04:20:30;;;;;;;6.15;2.30;;;4.20;96.70;;;;;;5034711;28;20124;-69
2022/01/01 04:22:57;;;;;;;7.63;3.42;;;4.10;96.90;;;;;;5036310;28;20054;-70
2022/01/01 04:25:27;;;;;;;5.35;2.75;;;4.00;95.60;;;;;;5036950;28;20119;-70
2022/01/01 04:27:55;;;;;;;5.03;3.08;;;4.20;96.10;;;;;;5036583;28;20032;-69
2022/01/01 04:30:21;;;;;;;6.20;2.70;;;4.30;95.50;;;;;;5036681;28;20026;-69
2022/01/01 04:32:47;;;;;;;5.05;2.78;;;4.30;95.70;;;;;;5030545;28;20021;-69
2022/01/01 04:35:14;;;;;;;4.60;2.50;;;4.40;95.40;;;;;;5034351;28;20136;-68
2022/01/01 04:37:41;;;;;;;5.32;2.50;;;4.40;95.60;;;;;;5023948;28;20380;-68
2022/01/01 04:40:08;;;;;;;5.93;2.35;;;4.50;95.50;;;;;;5027368;28;20055;-67
2022/01/01 04:42:34;;;;;;;5.82;2.92;;;4.50;95.80;;;;;;5035434;28;20032;-68
2022/01/01 04:45:00;;;;;;;5.00;2.60;;;4.50;96.30;;;;;;5035319;28;20021;-69
2022/01/01 04:47:26;;;;;;;5.03;2.30;;;4.50;96.10;;;;;;5033637;28;20029;-69
2022/01/01 04:49:52;;;;;;;4.70;2.40;;;4.60;96.00;;;;;;5035258;28;20028;-69
2022/01/01 04:52:18;;;;;;;4.70;2.40;;;4.80;95.80;;;;;;5033992;28;20025;-70
2022/01/01 04:54:44;;;;;;;5.07;2.55;;;5.00;96.80;;;;;;5036507;28;20029;-69
2022/01/01 04:57:12;;;;;;;4.28;2.40;;;5.00;97.30;;;;;;5034371;28;20044;-69
2022/01/01 04:59:39;;;;;;;5.28;2.60;;;5.00;98.00;;;;;;5035751;28;20037;-69
2022/01/01 05:02:05;;;;;;;13.30;7.70;;;4.80;97.80;;;;;;5034378;28;20033;-69
2022/01/01 05:04:30;;;;;;;21.80;12.90;;;4.70;97.10;;;;;;5035842;28;20021;-69
2022/01/01 05:06:56;;;;;;;7.93;4.93;;;4.70;97.10;;;;;;5034498;28;20317;-69
2022/01/01 05:09:22;;;;;;;6.32;3.90;;;4.80;97.00;;;;;;5035908;28;20061;-69
2022/01/01 05:11:48;;;;;;;5.78;3.60;;;4.90;96.90;;;;;;5031850;28;20025;-68
2022/01/01 05:14:15;;;;;;;6.25;3.50;;;4.90;96.80;;;;;;5030581;28;20368;-69
2022/01/01 05:16:41;;;;;;;5.88;3.70;;;5.00;97.30;;;;;;5034036;28;20320;-69
2022/01/01 05:19:08;;;;;;;7.28;3.58;;;4.90;97.40;;;;;;5034951;28;20041;-69
2022/01/01 05:21:35;;;;;;;4.95;2.50;;;4.90;97.30;;;;;;5033971;28;20025;-68
2022/01/01 05:24:03;;;;;;;6.15;2.90;;;4.90;97.20;;;;;;5035099;28;20090;-69
2022/01/01 05:26:28;;;;;;;5.47;3.10;;;4.90;96.80;;;;;;5035362;28;20026;-69
2022/01/01 05:28:54;;;;;;;4.53;2.60;;;4.90;96.80;;;;;;5017799;28;20322;-69
2022/01/01 05:31:20;;;;;;;4.55;2.45;;;4.90;96.60;;;;;;5034575;28;20426;-68
2022/01/01 05:33:47;;;;;;;5.10;2.60;;;4.90;96.80;;;;;;5033407;28;20361;-69
2022/01/01 05:36:16;;;;;;;4.90;2.60;;;4.90;96.60;;;;;;5034129;28;20104;-69
2022/01/01 05:38:43;;;;;;;6.55;3.08;;;4.90;96.10;;;;;;5035155;28;20342;-69
2022/01/01 05:41:08;;;;;;;5.88;3.17;;;5.00;96.70;;;;;;5034724;28;20030;-69
2022/01/01 05:43:34;;;;;;;6.22;2.80;;;5.00;96.30;;;;;;5035314;28;20100;-69
2022/01/01 05:46:00;;;;;;;4.85;2.30;;;5.00;96.00;;;;;;5034533;28;20318;-69
2022/01/01 05:48:26;;;;;;;4.70;2.78;;;5.10;96.80;;;;;;5033971;28;20112;-69
2022/01/01 05:50:52;;;;;;;4.68;2.25;;;5.20;97.00;;;;;;5035306;28;20116;-68
2022/01/01 05:53:19;;;;;;;4.82;2.63;;;5.30;97.20;;;;;;5034442;28;20025;-68
2022/01/01 05:55:45;;;;;;;4.80;2.22;;;5.30;97.00;;;;;;5034779;28;20422;-69
2022/01/01 05:58:10;;;;;;;7.93;2.75;;;5.40;96.90;;;;;;5035227;28;20033;-68
2022/01/01 06:00:36;;;;;;;5.78;2.72;;;5.30;97.50;;;;;;5035091;28;20426;-68
2022/01/01 06:03:02;;;;;;;5.70;2.53;;;5.30;98.00;;;;;;5033956;28;20029;-70
2022/01/01 06:05:28;;;;;;;5.82;2.30;;;5.40;98.00;;;;;;5034788;28;20021;-70
2022/01/01 06:07:55;;;;;;;5.38;2.45;;;5.50;98.00;;;;;;5034918;28;20041;-69
2022/01/01 06:10:24;;;;;;;4.93;2.50;;;5.40;98.00;;;;;;5035163;28;20022;-70
2022/01/01 06:12:50;;;;;;;3.88;2.10;;;5.50;97.60;;;;;;5014301;28;20099;-69
2022/01/01 06:15:16;;;;;;;4.75;2.10;;;5.70;98.00;;;;;;5033178;28;20130;-69
2022/01/01 06:17:44;;;;;;;9.05;2.28;;;5.60;98.00;;;;;;5033295;28;20060;-69
2022/01/01 06:20:11;;;;;;;5.75;2.40;;;5.50;98.00;;;;;;5034363;28;20060;-69
2022/01/01 06:22:36;;;;;;;6.68;2.35;;;5.60;98.00;;;;;;5032682;28;20108;-69
2022/01/01 06:25:03;;;;;;;5.50;2.30;;;5.50;98.00;;;;;;5034028;28;20144;-69
2022/01/01 06:27:28;;;;;;;3.65;1.77;;;5.40;98.00;;;;;;5033029;28;20025;-69
2022/01/01 06:29:54;;;;;;;6.97;2.50;;;5.40;97.70;;;;;;5034509;28;20031;-69
2022/01/01 06:32:20;;;;;;;5.00;2.50;;;5.60;97.60;;;;;;5033090;28;20021;-69
2022/01/01 06:34:45;;;;;;;4.85;2.10;;;5.60;97.70;;;;;;5029954;28;20036;-69
2022/01/01 06:37:11;;;;;;;5.03;2.33;;;5.70;97.50;;;;;;5032877;28;20033;-69
2022/01/01 06:39:37;;;;;;;4.43;2.25;;;5.80;98.00;;;;;;5034682;28;20040;-69
2022/01/01 06:42:03;;;;;;;5.10;2.47;;;5.60;98.00;;;;;;5036149;28;20029;-69
2022/01/01 06:44:28;;;;;;;5.80;2.72;;;5.30;98.00;;;;;;5038428;28;20029;-69
2022/01/01 06:46:55;;;;;;;4.72;2.40;;;4.90;98.00;;;;;;5030915;28;20033;-69
2022/01/01 06:49:21;;;;;;;5.97;2.55;;;4.50;98.00;;;;;;5036861;28;20070;-69
2022/01/01 06:51:46;;;;;;;9.77;2.72;;;4.30;98.00;;;;;;5036882;28;20057;-70
2022/01/01 06:54:12;;;;;;;6.30;2.90;;;4.10;98.00;;;;;;5037797;28;20384;-69
2022/01/01 06:56:37;;;;;;;6.20;3.08;;;3.90;98.00;;;;;;5036536;28;20044;-68
2022/01/01 06:59:03;;;;;;;5.47;2.85;;;3.80;97.80;;;;;;5036780;28;20113;-69
2022/01/01 07:01:29;;;;;;;5.82;2.80;;;3.70;97.10;;;;;;5036977;28;20033;-70
2022/01/01 07:03:55;;;;;;;6.68;2.63;;;3.60;96.60;;;;;;5037367;28;20075;-69
2022/01/01 07:06:21;;;;;;;6.20;2.67;;;3.70;96.20;;;;;;5037590;28;20037;-69
2022/01/01 07:08:47;;;;;;;23.60;13.45;;;3.70;96.00;;;;;;5036906;28;20029;-69
2022/01/01 07:11:17;;;;;;;7.85;4.72;;;3.70;95.50;;;;;;5038062;28;20491;-69
2022/01/01 07:13:43;;;;;;;8.00;4.38;;;3.70;95.70;;;;;;5037406;28;20108;-68
2022/01/01 07:16:10;;;;;;;5.90;3.25;;;3.60;95.60;;;;;;5037861;28;20151;-69
2022/01/01 07:18:36;;;;;;;5.68;3.00;;;3.50;95.70;;;;;;5034569;28;20033;-69
2022/01/01 07:21:02;;;;;;;4.82;2.53;;;3.30;95.60;;;;;;5037286;28;20329;-69
2022/01/01 07:23:28;;;;;;;6.43;3.03;;;3.20;95.80;;;;;;5037321;28;20030;-70
2022/01/01 07:25:53;;;;;;;11.45;8.02;;;3.10;94.50;;;;;;5037427;28;20025;-69
2022/01/01 07:28:19;;;;;;;12.10;9.13;;;3.20;93.90;;;;;;5037481;28;20037;-68
2022/01/01 07:30:45;;;;;;;6.68;3.92;;;3.20;94.80;;;;;;5018062;28;20026;-69
2022/01/01 07:33:14;;;;;;;7.20;3.25;;;3.50;91.40;;;;;;5036228;28;20315;-69
2022/01/01 07:35:40;;;;;;;5.85;3.08;;;4.10;89.20;;;;;;5037152;28;20022;-69
2022/01/01 07:38:06;;;;;;;8.27;3.92;;;4.50;89.50;;;;;;5037057;28;20037;-69
2022/01/01 07:40:34;;;;;;;8.57;3.65;;;4.70;89.80;;;;;;5026416;28;20022;-69
2022/01/01 07:43:01;;;;;;;5.90;3.10;;;5.00;90.80;;;;;;5028213;28;20441;-69
2022/01/01 07:45:27;;;;;;;8.65;3.17;;;5.10;91.40;;;;;;5029374;28;20054;-69
2022/01/01 07:47:53;;;;;;;5.47;3.13;;;5.20;91.50;;;;;;5026658;28;20363;-68
2022/01/01 07:50:19;;;;;;;9.52;3.40;;;5.30;92.40;;;;;;5028685;28;20318;-69
2022/01/01 07:52:45;;;;;;;4.45;2.38;;;5.40;93.50;;;;;;5031909;28;20025;-69
2022/01/01 07:55:11;;;;;;;5.18;2.40;;;5.30;94.40;;;;;;5035297;28;20025;-69
2022/01/01 07:57:37;;;;;;;5.93;2.50;;;5.30;95.20;;;;;;5032703;28;20033;-69
2022/01/01 08:00:04;;;;;;;4.47;2.30;;;5.30;95.50;;;;;;5035864;28;20098;-69
2022/01/01 08:02:30;;;;;;;6.07;2.97;;;5.50;95.80;;;;;;5033710;28;20017;-69
2022/01/01 08:04:55;;;;;;;5.35;2.90;;;5.60;95.90;;;;;;5021821;28;20048;-68
2022/01/01 08:07:21;;;;;;;10.90;3.25;;;5.60;96.50;;;;;;5029832;28;20032;-69
2022/01/01 08:09:47;;;;;;;6.28;2.40;;;5.50;96.30;;;;;;5034779;28;20373;-68
2022/01/01 08:12:15;;;;;;;9.27;3.03;;;5.60;96.20;;;;;;5035827;28;20510;-69
2022/01/01 08:14:41;;;;;;;5.65;3.20;;;5.50;96.30;;;;;;5035892;28;20029;-69
2022/01/01 08:17:06;;;;;;;5.07;2.85;;;5.60;95.40;;;;;;5032564;28;20418;-69
2022/01/01 08:19:33;;;;;;;7.20;4.18;;;5.50;95.40;;;;;;5035858;28;20357;-70
2022/01/01 08:21:59;;;;;;;7.80;3.85;;;5.50;95.90;;;;;;5035578;28;20526;-70
2022/01/01 08:24:25;;;;;;;5.82;3.60;;;5.50;95.70;;;;;;5035534;28;20393;-70
2022/01/01 08:26:51;;;;;;;8.85;3.92;;;5.60;94.90;;;;;;5035444;28;20444;-68
2022/01/01 08:29:17;;;;;;;8.98;5.28;;;5.70;94.30;;;;;;5035662;28;20033;-69
2022/01/01 08:31:43;;;;;;;8.38;4.32;;;5.80;94.20;;;;;;5033598;28;20027;-68
2022/01/01 08:34:09;;;;;;;6.28;4.00;;;6.00;94.30;;;;;;5013636;28;20084;-68
2022/01/01 08:36:36;;;;;;;7.45;3.85;;;6.10;94.90;;;;;;5035641;28;20075;-68
2022/01/01 08:39:05;;;;;;;8.27;3.10;;;6.20;95.90;;;;;;5033906;28;20033;-68
2022/01/01 08:41:31;;;;;;;5.25;2.42;;;6.50;96.60;;;;;;5035903;28;20025;-69
2022/01/01 08:43:57;;;;;;;4.93;2.78;;;7.40;98.00;;;;;;5032917;28;20075;-69
2022/01/01 08:46:25;;;;;;;5.65;2.53;;;8.00;98.00;;;;;;5035356;28;20025;-69
2022/01/01 08:48:51;;;;;;;4.38;1.80;;;8.40;98.00;;;;;;5034405;28;20017;-69
2022/01/01 08:51:18;;;;;;;3.72;1.80;;;9.30;98.00;;;;;;5034765;28;20440;-68
2022/01/01 08:53:45;;;;;;;5.53;2.05;;;10.50;98.00;;;;;;5035299;28;20025;-68
2022/01/01 08:56:14;;;;;;;7.22;4.28;;;11.60;98.00;;;;;;5035432;28;20425;-68
2022/01/01 08:58:41;;;;;;;6.97;4.03;;;12.70;93.80;;;;;;5035030;28;20029;-71
2022/01/01 09:01:07;;;;;;;8.93;4.97;;;13.60;92.30;;;;;;5035403;28;20033;-69
2022/01/01 09:03:37;;;;;;;8.77;4.97;;;14.60;85.10;;;;;;5032772;28;20105;-69
2022/01/01 09:06:04;;;;;;;8.07;4.60;;;14.60;83.30;;;;;;5031765;28;20021;-69
2022/01/01 09:08:35;;;;;;;7.07;3.30;;;15.70;81.80;;;;;;5035066;28;20021;-70
2022/01/01 09:11:01;;;;;;;6.82;3.03;;;16.40;78.00;;;;;;5032510;28;20128;-69
2022/01/01 09:13:27;;;;;;;5.80;2.75;;;16.70;77.20;;;;;;5033130;28;20140;-70
2022/01/01 09:15:55;;;;;;;3.45;1.80;;;16.70;76.70;;;;;;5029425;28;20092;-69
2022/01/01 09:18:21;;;;;;;3.60;1.90;;;17.10;77.40;;;;;;5033550;28;20299;-70
2022/01/01 09:20:48;;;;;;;2.92;1.30;;;18.00;75.50;;;;;;5035199;28;20076;-69
2022/01/01 09:23:14;;;;;;;3.78;1.30;;;18.50;73.80;;;;;;5029876;28;20080;-69
2022/01/01 09:25:40;;;;;;;3.78;1.40;;;18.90;72.20;;;;;;5033153;28;20095;-69
2022/01/01 09:28:05;;;;;;;3.25;1.27;;;19.20;71.20;;;;;;5034657;28;20026;-69
2022/01/01 09:30:31;;;;;;;3.20;1.38;;;19.70;70.90;;;;;;5033530;28;20033;-70
2022/01/01 09:32:57;;;;;;;2.58;1.10;;;20.10;69.30;;;;;;5033540;28;20589;-69
2022/01/01 09:35:22;;;;;;;3.45;1.20;;;20.40;69.00;;;;;;5034178;28;20318;-69
2022/01/01 09:37:48;;;;;;;2.58;1.13;;;20.50;68.10;;;;;;5035296;28;20430;-69
2022/01/01 09:40:17;;;;;;;2.97;1.40;;;20.50;68.50;;;;;;5033800;28;20038;-69
2022/01/01 09:42:47;;;;;;;4.95;2.90;;;19.50;68.70;;;;;;5034476;28;20057;-70
2022/01/01 09:45:13;;;;;;;5.55;2.80;;;18.30;72.20;;;;;;5034602;28;20022;-69
2022/01/01 09:47:40;;;;;;;4.80;2.65;;;18.50;72.30;;;;;;5031598;28;20299;-70
2022/01/01 09:50:07;;;;;;;5.78;2.05;;;18.30;72.60;;;;;;5034964;28;20033;-70
2022/01/01 09:52:34;;;;;;;4.80;1.98;;;17.80;72.80;;;;;;5034351;28;20317;-69
2022/01/01 09:55:00;;;;;;;4.10;1.80;;;17.20;74.20;;;;;;5035281;28;20025;-69
2022/01/01 09:57:25;;;;;;;7.53;2.35;;;16.90;75.30;;;;;;5033438;28;20029;-69
2022/01/01 09:59:51;;;;;;;5.72;2.10;;;16.10;75.90;;;;;;5034085;28;20036;-69
2022/01/01 10:02:17;;;;;;;4.70;2.30;;;15.90;77.20;;;;;;5031389;28;20030;-69
2022/01/01 10:04:50;;;;;;;5.65;2.58;;;16.30;77.00;;;;;;5034875;28;20033;-69
2022/01/01 10:07:16;;;;;;;5.28;2.60;;;16.00;76.40;;;;;;5028113;28;20030;-69
2022/01/01 10:09:43;;;;;;;6.18;3.05;;;15.10;78.20;;;;;;5029433;28;20029;-69
2022/01/01 10:12:14;;;;;;;9.57;3.35;;;14.80;79.50;;;;;;5034050;28;20030;-69
2022/01/01 10:14:40;;;;;;;7.05;3.42;;;15.10;78.60;;;;;;5031005;28;20441;-70
2022/01/01 10:17:23;;;;;;;6.38;3.15;;;15.10;78.20;;;;;;5035527;28;20033;-69
2022/01/01 10:19:51;;;;;;;6.78;3.40;;;15.00;78.40;;;;;;5038348;28;20041;-69
2022/01/01 10:22:21;;;;;;;6.68;3.13;;;15.00;79.00;;;;;;5036276;28;20029;-69
2022/01/01 10:27:42;;;;;;;6.28;3.08;;;15.70;78.50;;;;;;5037908;28;20429;-69
2022/01/01 10:30:09;;;;;;;6.63;3.30;;;16.70;76.30;;;;;;5037711;28;20017;-69
2022/01/01 10:32:35;;;;;;;5.20;2.90;;;17.40;75.00;;;;;;5036184;28;20422;-70
2022/01/01 10:35:05;;;;;;;6.13;3.30;;;18.00;73.90;;;;;;5037808;28;20444;-69
2022/01/01 10:37:31;;;;;;;6.13;3.22;;;18.00;73.60;;;;;;5036751;28;20120;-69
2022/01/01 10:39:58;;;;;;;4.93;2.50;;;18.50;73.40;;;;;;5038244;28;20380;-69
2022/01/01 10:42:24;;;;;;;5.03;2.25;;;18.70;72.90;;;;;;5037804;28;20025;-69
2022/01/01 10:44:54;;;;;;;4.10;1.92;;;18.80;72.70;;;;;;5037902;28;20029;-69
2022/01/01 10:47:29;;;;;;;5.32;2.00;;;19.20;72.30;;;;;;5037229;28;20022;-69
2022/01/01 10:52:32;;;;;;;4.57;1.70;;;19.60;71.40;;;;;;5035987;28;20033;-68
2022/01/01 10:55:00;;;;;;;6.00;2.35;;;18.80;72.30;;;;;;5036311;28;20035;-69
2022/01/01 10:57:57;;;;;;;8.27;3.78;;;18.40;72.50;;;;;;5037681;28;20159;-68
2022/01/01 11:00:25;;;;;;;13.02;5.97;;;17.70;73.80;;;;;;5020861;28;20384;-69
2022/01/01 11:02:57;;;;;;;15.52;6.95;;;17.70;74.50;;;;;;5033490;28;20076;-69
2022/01/01 11:05:33;;;;;;;14.55;7.32;;;17.30;75.40;;;;;;5034153;28;20052;-68
2022/01/01 11:08:00;;;;;;;12.43;7.22;;;17.20;75.20;;;;;;5037531;28;20037;-68
2022/01/01 11:10:27;;;;;;;12.55;6.85;;;17.10;75.70;;;;;;5031537;28;20024;-69
2022/01/01 11:12:53;;;;;;;12.80;7.88;;;17.10;75.90;;;;;;5034188;28;20037;-69
2022/01/01 11:15:20;;;;;;;11.40;6.22;;;16.80;76.10;;;;;;5035292;28;20022;-69
2022/01/01 11:17:47;;;;;;;9.30;5.70;;;16.70;77.70;;;;;;5035507;28;20092;-68
2022/01/01 11:20:13;;;;;;;11.40;6.00;;;16.00;78.50;;;;;;5036139;28;20132;-68
2022/01/01 11:22:39;;;;;;;8.05;4.63;;;15.80;79.20;;;;;;5034149;28;20460;-69
2022/01/01 11:25:05;;;;;;;8.20;4.50;;;15.70;79.40;;;;;;5035548;28;20037;-68
2022/01/01 11:27:31;;;;;;;7.80;3.85;;;16.10;79.20;;;;;;5035924;28;20365;-68
2022/01/01 11:29:59;;;;;;;6.05;2.30;;;16.60;78.00;;;;;;5035938;28;20013;-68
2022/01/01 11:32:40;;;;;;;6.47;3.70;;;17.10;76.80;;;;;;5035191;28;20136;-68
2022/01/01 11:35:18;;;;;;;5.57;3.00;;;17.60;75.50;;;;;;5022698;28;20033;-69
2022/01/01 11:37:45;;;;;;;8.20;3.50;;;17.90;74.00;;;;;;5035441;28;20033;-68
2022/01/01 11:40:16;;;;;;;9.50;4.35;;;17.90;74.80;;;;;;5036037;28;20334;-69
2022/01/01 11:42:50;;;;;;;5.22;2.78;;;17.90;74.60;;;;;;5035315;28;20040;-67
2022/01/01 11:45:42;;;;;;;9.07;4.10;;;17.40;76.70;;;;;;5035496;28;20105;-67
2022/01/01 11:48:26;;;;;;;6.60;2.50;;;17.10;77.20;;;;;;5034252;28;20465;-68
2022/01/01 11:50:52;;;;;;;5.78;3.00;;;16.70;79.00;;;;;;5032935;28;20033;-67
2022/01/01 11:53:31;;;;;;;5.30;2.38;;;16.50;79.70;;;;;;5036270;28;20034;-69
2022/01/01 11:56:12;;;;;;;4.18;1.88;;;16.50;79.60;;;;;;5037030;28;20095;-69
2022/01/01 11:58:48;;;;;;;4.32;1.98;;;16.60;79.80;;;;;;5035227;28;20076;-69
2022/01/01 12:01:22;;;;;;;3.90;1.70;;;16.70;79.30;;;;;;5035275;28;20025;-68
2022/01/01 12:03:52;;;;;;;5.40;1.90;;;16.80;79.10;;;;;;5034133;28;20021;-68
2022/01/01 12:06:18;;;;;;;4.15;1.70;;;16.90;79.40;;;;;;5036419;28;20033;-69
2022/01/01 12:08:48;;;;;;;4.60;2.08;;;16.80;79.10;;;;;;5035332;28;20463;-70
2022/01/01 12:11:33;;;;;;;4.97;2.38;;;17.10;79.40;;;;;;5035620;28;20470;-69
2022/01/01 12:14:01;;;;;;;7.70;3.08;;;17.30;77.90;;;;;;5035521;28;20032;-68
2022/01/01 12:16:27;;;;;;;5.88;2.42;;;17.70;77.60;;;;;;5036048;28;20120;-68
2022/01/01 12:19:06;;;;;;;5.63;2.00;;;17.40;77.80;;;;;;5018638;28;20128;-68
2022/01/01 12:21:39;;;;;;;6.95;3.00;;;17.10;80.00;;;;;;5035711;28;20045;-68
2022/01/01 12:24:08;;;;;;;5.25;2.40;;;16.80;79.10;;;;;;5035890;28;20029;-68
2022/01/01 12:26:34;;;;;;;7.50;2.50;;;16.80;79.40;;;;;;5033626;28;20033;-69
2022/01/01 12:29:07;;;;;;;5.90;2.60;;;16.60;79.20;;;;;;5019572;28;20039;-68
2022/01/01 12:31:34;;;;;;;5.32;2.53;;;16.60;79.80;;;;;;5034667;28;20025;-69
2022/01/01 12:34:09;;;;;;;9.07;2.40;;;16.70;79.80;;;;;;5016804;28;20079;-69
2022/01/01 12:36:41;;;;;;;4.65;2.20;;;16.90;80.40;;;;;;5032025;28;20039;-68
2022/01/01 12:39:08;;;;;;;5.07;2.35;;;16.80;80.50;;;;;;5035326;28;20338;-69
2022/01/01 12:41:37;;;;;;;4.10;1.80;;;16.70;81.00;;;;;;5034779;28;20108;-69
2022/01/01 12:44:16;;;;;;;4.20;1.90;;;16.40;81.40;;;;;;5035113;28;20036;-69
2022/01/01 12:46:46;;;;;;;5.10;2.08;;;16.20;82.20;;;;;;5033299;28;20091;-68
2022/01/01 12:49:12;;;;;;;6.43;2.67;;;16.10;82.80;;;;;;5035707;28;20411;-69
2022/01/01 12:51:38;;;;;;;5.53;2.78;;;16.10;81.90;;;;;;5035025;28;20112;-68
2022/01/01 12:54:13;;;;;;;6.35;2.83;;;16.10;82.30;;;;;;5035463;28;20048;-69
2022/01/01 12:56:41;;;;;;;5.20;2.40;;;16.30;82.30;;;;;;5032549;28;20021;-69
2022/01/01 12:59:09;;;;;;;5.53;2.60;;;16.30;82.40;;;;;;5031773;28;20052;-69
2022/01/01 13:01:37;;;;;;;6.45;2.90;;;16.20;81.60;;;;;;5029706;28;20500;-68
2022/01/01 13:04:09;;;;;;;7.68;2.80;;;15.80;82.10;;;;;;5035083;28;20025;-68